GVAC/SID METAR and TAF weather

Enter ICAO airport designator
Station Type Date Time Source
GVAC METAR 2018/01/23 01:00 UTC NOAA

GVAC 230100Z 07009KT 4100 HZ NSC 20/16 Q1015 NOSIG


Station Type Date Time Source
GVAC Decoded METAR 2018/01/23 01:00 UTC NOAA

Sal, Cape Verde (GVAC) 16-44N 022-57W 55M
Jan 22, 2018 - 08:00 PM EST / 2018.01.23 0100 UTC
Wind: from the ENE (070 degrees) at 10 MPH (9 KT):0
Visibility: 2 mile(s):0
Weather: haze
Temperature: 68 F (20 C)
Dew Point: 60 F (16 C)
Relative Humidity: 77%
Pressure (altimeter): 29.97 in. Hg (1015 hPa)
ob: GVAC 230100Z 07009KT 4100 HZ NSC 20/16 Q1015 NOSIG
cycle: 1

Station Type Date Time Source
GVAC TAF 2018/01/22 18:57 UTC NOAA

TAF GVAC 221700Z 2218/2324 06014KT 2800 DU NSC
TEMPO 2218/2303 3200 HZ PROB30
TEMPO 2308/2312 4000 HZ


Example: see airport list